Terminal Aerodrome Forecast
Issued by NWS Charleston, WV

Current Version | Previous Version | Graphics & Text | Print | Product List | Glossary On
Versions: 1 2 3 4 5 6 7 8 9 10 11 12 13 14 15 16 17 18 19 20 21 22 23 24 25 26
000
FTUS41 KRLX 280200 AAA
TAFHTS
TAF AMD
KHTS 280246Z 2803/2824 29020G30KT 1SM +TSRA BKN020CB OVC060
     FM280310 28007KT 5SM BR SCT020 OVC060
     FM280400 27007KT P6SM BKN060
     FM281100 27005KT P6SM BKN025=

USA.gov is the U.S. government's official web portal to all federal, state and local government web resources and services.